Blount Springs, Alabama
Current Conditions -  °F | °C
As of 1:53 PM on Thursday 29 Jan 2015 (Local Time) from KBHM Reporting Station
Broken Clouds Broken Clouds  
Wind Chill: 64°   Ceiling: 10000
Heat Index: 64°   Visibility: 10mi
Dew Point: 42°   Wind: 15mph
Humidity: 45%   Direction: 220°SW
Pressure: 30.11"   Gusts: 24mph
Location:  33.8985°N, 86.8068°W
Report Text: KBHM 291953Z 22013G21KT 10SM SCT040 BKN100 BKN250 18/06 A3011 RMK AO2 SLP194 T01780056
Loading
Personal Weather Stations






























Interactive Weather Map New forecast layout! Learn more

10-Day Weather Forecast

Advertisements
Track Severe Weather on mobile